首页
METAR-TAF:

METAR-TAF

机场 :

Phoenix Goodyear Airport

Goodyear, 亞利桑那州, 美国

纬度: 33-25N, 经度: 112-23W, 海拔: 295米

当前天气观测

该预报发布于2小时和45分钟前的03:47 UTC
风速7节,风向东转东北
温度 29°C
湿度 45%
气压 1014 hPa
能見度: 16.1公里
散云层高于8000英尺
多云层高于14000英尺
多云层高于20000英尺

METAR: KGYR 150347Z 07007KT 10SM SCT080 BKN140 BKN200 29/16 A2993 RMK LAST

时间: 23:32 (06:32 UTC)


TAF: 丢失

超过4000个机场的气象观测和天气预报(METAR&TAF报告)。

可查询的气象台以黄色和红色小点在地图上表示。

将鼠标移到小点上方,可查看气象台名称。

然后点击查看天气观测和预报。

如需切换地图:点击带黑十字的绿色按钮放大地图;点击带横线的绿色按钮缩小地图;或者点击绿色箭头查看邻近地区的地图。


METAR-TAF: